createdAt,value
2022-08-12T00:03:03.609Z,4.6
2022-08-12T00:08:54.771Z,4.3
2022-08-12T00:14:47.098Z,4.5
2022-08-12T00:20:38.450Z,4.2
2022-08-12T00:26:31.041Z,4.4
2022-08-12T00:32:54.988Z,4.4
2022-08-12T00:38:45.755Z,4.3
2022-08-12T00:44:40.117Z,4.3
2022-08-12T00:50:30.918Z,4.3
2022-08-12T00:56:24.291Z,4.5
2022-08-12T01:02:18.586Z,4.6
2022-08-12T01:08:11.091Z,4.6
2022-08-12T01:14:01.598Z,4.9
2022-08-12T01:19:53.123Z,4.3
2022-08-12T01:26:02.143Z,4.6
2022-08-12T01:31:51.772Z,4.6
2022-08-12T01:37:42.896Z,4.3
2022-08-12T01:43:34.734Z,3.9
2022-08-12T01:49:28.226Z,4.5
2022-08-12T01:55:20.708Z,4.4
2022-08-12T02:01:12.275Z,4.5
2022-08-12T02:07:03.930Z,4.5
2022-08-12T02:12:55.603Z,5.1
2022-08-12T02:18:46.958Z,4.5
2022-08-12T02:24:37.998Z,4.6
2022-08-12T02:30:43.688Z,4.4
2022-08-12T02:36:39.304Z,4.9
2022-08-12T02:42:32.239Z,4.9
2022-08-12T02:48:23.325Z,4.9
2022-08-12T02:54:15.391Z,4.8
2022-08-12T03:00:06.792Z,4.9
2022-08-12T03:05:59.110Z,4.7
2022-08-12T03:11:58.841Z,4.9
2022-08-12T03:18:31.915Z,5
2022-08-12T03:24:20.968Z,4.9
2022-08-12T03:30:13.019Z,5.3
2022-08-12T03:36:04.362Z,5.4
2022-08-12T03:41:59.686Z,5.3
2022-08-12T03:47:51.497Z,5.3
2022-08-12T03:53:43.889Z,4.9
2022-08-12T03:59:35.285Z,4.9
2022-08-12T04:06:00.094Z,5.1
2022-08-12T04:11:53.528Z,5.5
2022-08-12T04:18:13.533Z,5.4
2022-08-12T04:24:02.509Z,5.3
2022-08-12T04:30:39.810Z,5.6
2022-08-12T04:36:28.682Z,5.6
2022-08-12T04:42:22.031Z,5.6
2022-08-12T04:48:17.563Z,5.5
2022-08-12T04:54:09.265Z,5.7
2022-08-12T05:00:02.116Z,5.7
2022-08-12T05:05:54.198Z,5.8
2022-08-12T05:12:05.719Z,5.9
2022-08-12T05:17:56.370Z,6.5
2022-08-12T05:23:51.363Z,6.1
2022-08-12T05:30:55.474Z,6.2
2022-08-12T05:36:50.534Z,6.1
2022-08-12T05:42:48.586Z,5.9
2022-08-12T05:48:46.964Z,9.4
2022-08-12T05:55:02.852Z,5.6
2022-08-12T06:00:53.828Z,5.2
2022-08-12T06:06:46.678Z,5.5
2022-08-12T06:12:39.090Z,5.1
2022-08-12T06:18:42.845Z,4.4
2022-08-12T06:24:34.502Z,5.2
2022-08-12T06:30:49.673Z,4.1
2022-08-12T06:36:48.454Z,4.4
2022-08-12T06:42:41.488Z,4.1
2022-08-12T06:48:31.301Z,4.2
2022-08-12T06:54:38.451Z,3.7
2022-08-12T07:00:37.838Z,3.9
2022-08-12T07:06:27.424Z,3.6
2022-08-12T07:12:19.046Z,3.6
2022-08-12T07:18:10.292Z,2.9
2022-08-12T07:24:01.041Z,3.3
2022-08-12T07:30:10.435Z,3.5
2022-08-12T07:36:01.409Z,3.5
2022-08-12T07:41:50.342Z,3.6
2022-08-12T07:47:40.644Z,3.4
2022-08-12T07:53:31.785Z,3.5
2022-08-12T07:59:24.302Z,4
2022-08-12T08:05:22.140Z,3.3
2022-08-12T08:11:18.378Z,3.3
2022-08-12T08:17:08.591Z,3.1
2022-08-12T08:23:08.190Z,3.3
2022-08-12T08:28:58.150Z,3.2
2022-08-12T08:35:02.942Z,3.2
2022-08-12T08:40:55.456Z,3.1
2022-08-12T08:46:50.795Z,3.2
2022-08-12T08:52:49.341Z,3.1
2022-08-12T08:58:42.496Z,3.2
2022-08-12T09:06:08.443Z,2.9
2022-08-12T09:12:31.922Z,3.3
2022-08-12T09:18:38.876Z,2.4
2022-08-12T09:24:47.993Z,2.6
2022-08-12T09:31:05.059Z,2.3
2022-08-12T09:38:31.967Z,2.4
2022-08-12T09:45:23.721Z,2.2
2022-08-12T09:51:45.421Z,2.2
2022-08-12T09:59:06.468Z,2.2
2022-08-12T10:05:02.170Z,2.1
2022-08-12T10:10:56.510Z,2.1
2022-08-12T10:17:14.127Z,2.1
2022-08-12T10:23:10.103Z,2
2022-08-12T10:31:05.284Z,1.9
2022-08-12T10:37:00.374Z,2.1
2022-08-12T10:43:24.389Z,2
2022-08-12T10:52:32.673Z,2.2
2022-08-12T10:58:39.663Z,3.3
2022-08-12T11:08:33.235Z,2.4
2022-08-12T11:15:21.516Z,2.1
2022-08-12T11:22:01.204Z,2.1
2022-08-12T11:27:58.889Z,2.9
2022-08-12T11:35:02.485Z,1.9
2022-08-12T11:40:53.556Z,2.3
2022-08-12T11:46:42.914Z,2.4
2022-08-12T12:02:09.222Z,2.2
2022-08-12T12:09:02.036Z,1.9
2022-08-12T12:15:12.397Z,2.1
2022-08-12T12:21:10.099Z,2.1
2022-08-12T12:27:11.767Z,2
2022-08-12T12:33:13.095Z,2
2022-08-12T12:39:19.204Z,2.1
2022-08-12T12:45:37.199Z,1.9
2022-08-12T12:52:28.508Z,2
2022-08-12T12:58:18.720Z,2.1
2022-08-12T13:04:18.960Z,1.9
2022-08-12T13:10:16.720Z,1.9
2022-08-12T13:16:18.676Z,1.9
2022-08-12T13:22:27.800Z,1.9
2022-08-12T13:28:21.959Z,1.9
2022-08-12T13:34:43.547Z,1.9
2022-08-12T13:40:35.258Z,2
2022-08-12T13:46:27.357Z,2
2022-08-12T13:52:19.964Z,1.8
2022-08-12T13:58:22.252Z,1.8
2022-08-12T14:04:21.813Z,1.8
2022-08-12T14:10:19.701Z,1.9
2022-08-12T14:16:47.120Z,2
2022-08-12T14:23:00.056Z,2
2022-08-12T14:30:32.847Z,1.9
2022-08-12T14:36:26.012Z,2
2022-08-12T14:42:18.446Z,2
2022-08-12T14:48:09.578Z,1.9
2022-08-12T14:58:04.652Z,2
2022-08-12T15:04:06.546Z,2.3
2022-08-12T15:10:03.355Z,1.7
2022-08-12T15:15:52.443Z,2.1
2022-08-12T15:23:01.019Z,1.9
2022-08-12T15:29:00.932Z,1.8
2022-08-12T15:34:58.290Z,1.9
2022-08-12T15:40:55.278Z,2
2022-08-12T15:46:48.564Z,2
2022-08-12T15:52:42.113Z,1.9
2022-08-12T15:58:40.590Z,1.6
2022-08-12T16:04:34.839Z,1.9
2022-08-12T16:10:41.474Z,1.9
2022-08-12T16:16:40.204Z,1.6
2022-08-12T16:22:35.424Z,1.7
2022-08-12T16:28:35.553Z,1.6
2022-08-12T16:35:03.375Z,2
2022-08-12T16:42:04.912Z,2.2
2022-08-12T16:51:29.343Z,1.9
2022-08-12T16:57:48.716Z,1.7
2022-08-12T17:03:58.414Z,1.9
2022-08-12T17:09:49.019Z,1.9
2022-08-12T17:16:29.867Z,1.7
2022-08-12T17:22:32.395Z,2.2
2022-08-12T17:28:25.781Z,1.9
2022-08-12T17:34:30.591Z,1.7
2022-08-12T17:40:47.861Z,1.6
2022-08-12T17:46:39.533Z,1.7
2022-08-12T17:52:40.567Z,1.9
2022-08-12T17:59:00.772Z,1.8
2022-08-12T18:05:16.400Z,2
2022-08-12T18:12:11.705Z,1.8
2022-08-12T18:18:19.573Z,1.7
2022-08-12T18:24:34.437Z,1.5
2022-08-12T18:30:36.054Z,1.4
2022-08-12T18:36:30.294Z,1.6
2022-08-12T18:42:23.119Z,1.9
2022-08-12T18:48:12.716Z,1.9
2022-08-12T18:54:23.353Z,1.8
2022-08-12T19:00:16.312Z,2
2022-08-12T19:06:07.988Z,2.2
2022-08-12T19:12:07.687Z,2.6
2022-08-12T19:18:08.880Z,2.7
2022-08-12T19:24:07.535Z,2.6
2022-08-12T19:30:24.120Z,2.5
2022-08-12T19:36:31.944Z,2.9
2022-08-12T19:42:32.462Z,2.5
2022-08-12T19:48:23.854Z,2.6
2022-08-12T19:54:22.405Z,2.3
2022-08-12T20:00:14.674Z,3
2022-08-12T20:06:34.284Z,2.5
2022-08-12T20:13:27.133Z,2.6
2022-08-12T20:20:16.509Z,2.5
2022-08-12T20:26:18.129Z,2.7
2022-08-12T20:32:15.673Z,3.3
2022-08-12T20:38:36.646Z,3
2022-08-12T20:44:28.350Z,3.3
2022-08-12T20:50:20.681Z,2.9
2022-08-12T20:56:30.462Z,3.1
2022-08-12T21:02:33.380Z,4
2022-08-12T21:08:29.810Z,3.4
2022-08-12T21:15:03.468Z,3.3
2022-08-12T21:21:05.990Z,4.7
2022-08-12T21:27:09.911Z,3.6
2022-08-12T21:33:18.404Z,3.5
2022-08-12T21:39:39.907Z,3.7
2022-08-12T21:46:34.003Z,3.4
2022-08-12T21:52:48.719Z,3.4
2022-08-12T21:58:39.969Z,3.3
2022-08-12T22:04:35.069Z,3.2
2022-08-12T22:10:37.363Z,3.4
2022-08-12T22:16:51.105Z,3.1
2022-08-12T22:22:56.513Z,3.2
2022-08-12T22:28:53.456Z,3.7
2022-08-12T22:34:47.820Z,3.3
2022-08-12T22:40:45.496Z,3.4
2022-08-12T22:46:38.587Z,3.1
2022-08-12T22:52:36.795Z,2.8
2022-08-12T22:58:40.889Z,3
2022-08-12T23:04:44.618Z,3
2022-08-12T23:10:49.099Z,2.3
2022-08-12T23:16:49.440Z,2.1
2022-08-12T23:23:08.955Z,2.4
2022-08-12T23:29:26.177Z,2.1
2022-08-12T23:36:04.380Z,2.6
2022-08-12T23:42:34.067Z,2.3
2022-08-12T23:48:36.301Z,2.2
2022-08-12T23:55:30.081Z,2.1
